Time;durP1;ratioP1;P1;durP2;ratioP2;P2;SDS_P1;SDS_P2;PMS_P1;PMS_P2;Temp;Humidity;BMP_temperature;BMP_pressure;BME280_temperature;BME280_humidity;BME280_pressure;Samples;Min_cycle;Max_cycle;Signal;HPM_P1;HPM_P2
2022/10/12 00:01:15;;;;;;;6.75;2.70;;;9.10;99.90;;;;;;4991773;28;20046;-73
2022/10/12 00:03:41;;;;;;;5.65;2.53;;;9.10;99.90;;;;;;4990307;28;20054;-73
2022/10/12 00:06:13;;;;;;;11.55;3.60;;;9.10;99.90;;;;;;4991161;28;20046;-72
2022/10/12 00:08:41;;;;;;;7.45;3.88;;;9.10;99.90;;;;;;5005870;28;20042;-73
2022/10/12 00:11:10;;;;;;;10.02;4.90;;;9.10;99.90;;;;;;4991189;28;20034;-73
2022/10/12 00:13:37;;;;;;;8.20;2.83;;;9.00;99.90;;;;;;4990389;28;20407;-73
2022/10/12 00:16:05;;;;;;;6.35;2.58;;;8.90;99.90;;;;;;4989592;28;20058;-72
2022/10/12 00:18:32;;;;;;;8.05;2.90;;;8.80;99.90;;;;;;4992693;28;20042;-73
2022/10/12 00:21:25;;;;;;;7.35;2.13;;;8.80;99.90;;;;;;4994845;28;20034;-73
2022/10/12 00:23:55;;;;;;;7.97;2.85;;;8.60;99.90;;;;;;4988718;28;20054;-73
2022/10/12 00:26:22;;;;;;;9.73;2.58;;;8.50;99.90;;;;;;4995101;28;20038;-72
2022/10/12 00:28:54;;;;;;;8.77;2.70;;;8.50;99.90;;;;;;4994322;28;20038;-73
2022/10/12 00:31:21;;;;;;;8.98;3.05;;;8.40;99.90;;;;;;4995168;28;20488;-73
2022/10/12 00:33:47;;;;;;;10.93;3.20;;;8.30;99.90;;;;;;4991942;28;20388;-76
2022/10/12 00:36:20;;;;;;;9.50;2.42;;;8.30;99.90;;;;;;4995030;28;20034;-73
2022/10/12 00:38:47;;;;;;;9.85;3.40;;;8.20;99.90;;;;;;4994235;28;20046;-75
2022/10/12 00:41:15;;;;;;;9.48;2.92;;;8.10;99.90;;;;;;4994727;28;20030;-72
2022/10/12 00:43:46;;;;;;;10.20;4.47;;;8.00;99.90;;;;;;4993557;28;20038;-72
2022/10/12 00:46:57;;;;;;;7.72;2.80;;;8.10;99.90;;;;;;4993499;28;20046;-72
2022/10/12 00:49:25;;;;;;;10.25;3.00;;;8.10;99.90;;;;;;4899113;29;20051;-72
2022/10/12 00:51:55;;;;;;;8.00;2.65;;;8.10;99.90;;;;;;4978676;28;20046;-74
2022/10/12 00:54:35;;;;;;;9.55;2.28;;;8.10;99.90;;;;;;4993815;28;20391;-73
2022/10/12 00:57:04;;;;;;;6.40;2.55;;;8.10;99.90;;;;;;5009081;28;20097;-73
2022/10/12 00:59:36;;;;;;;9.65;3.58;;;8.00;99.90;;;;;;4988295;28;20034;-74
2022/10/12 01:02:03;;;;;;;10.48;2.70;;;8.00;99.90;;;;;;4987068;28;20057;-75
2022/10/12 01:04:31;;;;;;;5.63;2.13;;;8.00;99.90;;;;;;4994209;28;20042;-72
2022/10/12 01:06:58;;;;;;;9.65;2.83;;;7.90;99.90;;;;;;4987297;28;20046;-73
2022/10/12 01:09:26;;;;;;;13.52;2.95;;;7.80;99.90;;;;;;4993286;28;20049;-71
2022/10/12 01:11:52;;;;;;;8.95;2.78;;;7.70;99.90;;;;;;4993332;28;20034;-73
2022/10/12 01:14:19;;;;;;;6.68;3.10;;;7.70;99.90;;;;;;4993461;28;20042;-72
2022/10/12 01:16:56;;;;;;;10.63;2.63;;;7.70;99.90;;;;;;4994267;28;20038;-73
2022/10/12 01:19:58;;;;;;;5.85;2.28;;;7.70;99.90;;;;;;4993627;28;20034;-73
2022/10/12 01:22:24;;;;;;;;;;;7.70;99.90;;;;;;4970141;28;20054;-72
2022/10/12 01:25:21;;;;;;;7.97;1.95;;;7.70;99.90;;;;;;4992523;28;19929;-75
2022/10/12 01:28:16;;;;;;;6.00;2.53;;;7.60;99.90;;;;;;4993786;28;20042;-76
2022/10/12 01:30:47;;;;;;;13.00;2.65;;;7.50;99.90;;;;;;4959495;28;20045;-73
2022/10/12 01:33:31;;;;;;;6.20;2.15;;;7.60;99.90;;;;;;4991325;28;20034;-73
2022/10/12 01:36:01;;;;;;;10.75;2.70;;;7.60;99.90;;;;;;4993007;28;20034;-73
2022/10/12 01:38:44;;;;;;;7.53;2.58;;;7.60;99.90;;;;;;4994064;28;20042;-74
2022/10/12 01:41:29;;;;;;;10.88;2.40;;;7.60;99.90;;;;;;4991962;28;20049;-72
2022/10/12 01:43:55;;;;;;;14.13;6.30;;;7.60;99.90;;;;;;4990549;28;20046;-74
2022/10/12 01:46:24;;;;;;;11.63;6.18;;;7.50;99.90;;;;;;4992310;28;20047;-73
2022/10/12 01:48:57;;;;;;;8.68;6.10;;;7.50;99.90;;;;;;4992980;28;20030;-75
2022/10/12 01:51:45;;;;;;;11.05;5.72;;;7.50;99.90;;;;;;4994213;28;20030;-73
2022/10/12 01:54:39;;;;;;;8.95;4.63;;;7.60;99.90;;;;;;4989994;28;20050;-72
2022/10/12 01:57:18;;;;;;;22.83;3.83;;;7.50;99.90;;;;;;4993034;28;20050;-72
2022/10/12 02:00:09;;;;;;;6.32;2.50;;;7.60;99.90;;;;;;4993903;28;20031;-72
2022/10/12 02:02:44;;;;;;;8.20;2.60;;;7.70;99.90;;;;;;4988185;28;20026;-73
2022/10/12 02:05:33;;;;;;;7.43;2.60;;;7.80;99.90;;;;;;4992690;28;20030;-73
2022/10/12 02:08:25;;;;;;;9.38;2.70;;;7.80;99.90;;;;;;4992792;28;20053;-73
2022/10/12 02:11:09;;;;;;;7.05;2.33;;;7.80;99.90;;;;;;4988807;28;20042;-76
2022/10/12 02:13:40;;;;;;;10.13;2.92;;;7.70;99.90;;;;;;4992176;28;20030;-73
2022/10/12 02:16:14;;;;;;;4.88;2.17;;;7.70;99.90;;;;;;4991363;28;20030;-72
2022/10/12 02:18:45;;;;;;;6.53;2.83;;;7.80;99.90;;;;;;4993427;28;20035;-73
2022/10/12 02:21:15;;;;;;;8.55;2.55;;;7.80;99.90;;;;;;4990723;28;20038;-72
2022/10/12 02:23:43;;;;;;;10.82;2.85;;;7.90;99.90;;;;;;4991763;28;20429;-73
2022/10/12 02:26:11;;;;;;;8.18;3.47;;;7.90;99.90;;;;;;4992161;28;20035;-74
2022/10/12 02:28:38;;;;;;;10.88;2.85;;;7.80;99.90;;;;;;4992908;28;20030;-73
2022/10/12 02:31:23;;;;;;;6.63;2.22;;;7.80;99.90;;;;;;4992010;28;20039;-74
2022/10/12 02:34:07;;;;;;;8.93;3.42;;;7.80;99.90;;;;;;4991198;28;20046;-76
2022/10/12 02:36:44;;;;;;;12.52;3.90;;;7.80;99.90;;;;;;4993075;28;20038;-73
2022/10/12 02:39:20;;;;;;;7.90;2.90;;;7.80;99.90;;;;;;4991032;28;20041;-74
2022/10/12 02:41:49;;;;;;;9.20;3.30;;;7.70;99.90;;;;;;4990464;28;20053;-73
2022/10/12 02:44:21;;;;;;;7.95;2.38;;;7.70;99.90;;;;;;4992072;28;20456;-73
2022/10/12 02:46:52;;;;;;;9.13;3.10;;;7.70;99.90;;;;;;4992573;28;20049;-72
2022/10/12 02:49:21;;;;;;;7.68;2.90;;;7.70;99.90;;;;;;4992261;28;20066;-72
2022/10/12 02:51:48;;;;;;;8.60;2.45;;;7.70;99.90;;;;;;4991689;28;20057;-73
2022/10/12 02:54:14;;;;;;;6.63;2.75;;;7.70;99.90;;;;;;4991484;28;20423;-72
2022/10/12 02:56:45;;;;;;;11.73;2.58;;;7.70;99.90;;;;;;4992680;28;20039;-73
2022/10/12 02:59:13;;;;;;;14.82;2.70;;;7.60;99.90;;;;;;4991643;28;20022;-73
2022/10/12 03:01:40;;;;;;;5.05;2.42;;;7.50;99.90;;;;;;4992192;28;20388;-73
2022/10/12 03:04:06;;;;;;;13.85;3.53;;;7.40;99.90;;;;;;4991216;28;20384;-73
2022/10/12 03:06:32;;;;;;;13.30;4.22;;;7.40;99.90;;;;;;4992144;28;20062;-72
2022/10/12 03:08:58;;;;;;;6.10;2.80;;;7.40;99.90;;;;;;4991835;28;20057;-73
2022/10/12 03:11:24;;;;;;;7.85;2.78;;;7.40;99.90;;;;;;4992876;28;20045;-73
2022/10/12 03:13:55;;;;;;;8.43;2.80;;;7.30;99.90;;;;;;4991010;28;20041;-75
2022/10/12 03:16:21;;;;;;;6.95;2.67;;;7.40;99.90;;;;;;4992672;28;20061;-73
2022/10/12 03:18:48;;;;;;;15.93;3.50;;;7.40;99.90;;;;;;4992204;28;20030;-73
2022/10/12 03:21:14;;;;;;;6.07;3.05;;;7.30;99.90;;;;;;4991522;28;20518;-74
2022/10/12 03:23:40;;;;;;;9.57;3.17;;;7.40;99.90;;;;;;4991318;28;20046;-74
2022/10/12 03:26:07;;;;;;;7.30;3.28;;;7.40;99.90;;;;;;4991428;28;20042;-72
2022/10/12 03:28:34;;;;;;;8.15;2.40;;;7.40;99.90;;;;;;4997695;28;20158;-73
2022/10/12 03:31:01;;;;;;;9.00;3.10;;;7.30;99.90;;;;;;4981274;28;20034;-73
2022/10/12 03:33:27;;;;;;;8.07;2.95;;;7.40;99.90;;;;;;4991923;28;20460;-73
2022/10/12 03:35:53;;;;;;;9.88;3.40;;;7.40;99.90;;;;;;4995769;28;20034;-76
2022/10/12 03:38:20;;;;;;;7.32;3.60;;;7.40;99.90;;;;;;5011094;28;20030;-73
2022/10/12 03:40:46;;;;;;;7.55;2.92;;;7.40;99.90;;;;;;5006455;28;20040;-74
2022/10/12 03:43:13;;;;;;;11.77;3.75;;;7.40;99.90;;;;;;4990207;28;20467;-73
2022/10/12 03:45:39;;;;;;;6.20;2.50;;;7.50;99.90;;;;;;4991895;28;20033;-74
2022/10/12 03:48:06;;;;;;;10.40;3.08;;;7.50;99.90;;;;;;4991519;28;20045;-73
2022/10/12 03:50:33;;;;;;;7.03;2.33;;;7.50;99.90;;;;;;4992113;28;20043;-73
2022/10/12 03:53:01;;;;;;;8.90;3.63;;;7.40;99.90;;;;;;4987782;28;20490;-73
2022/10/12 03:55:27;;;;;;;11.80;4.25;;;7.40;99.90;;;;;;4994171;28;20407;-73
2022/10/12 03:57:54;;;;;;;9.80;2.92;;;7.40;99.90;;;;;;4995171;28;20034;-75
2022/10/12 04:00:20;;;;;;;8.38;3.05;;;7.40;99.90;;;;;;4994442;28;20051;-73
2022/10/12 04:02:46;;;;;;;5.72;2.85;;;7.40;99.90;;;;;;4994264;28;20035;-72
2022/10/12 04:05:12;;;;;;;7.22;2.75;;;7.40;99.90;;;;;;4993959;28;20480;-72
2022/10/12 04:07:39;;;;;;;11.88;5.28;;;7.40;99.90;;;;;;4994490;28;20049;-72
2022/10/12 04:10:06;;;;;;;11.73;4.72;;;7.40;99.90;;;;;;4994808;28;20030;-73
2022/10/12 04:12:32;;;;;;;12.77;3.25;;;7.40;99.90;;;;;;4992889;28;20034;-72
2022/10/12 04:14:58;;;;;;;7.03;2.88;;;7.40;99.90;;;;;;4993158;28;20026;-73
2022/10/12 04:17:24;;;;;;;11.02;3.90;;;7.50;99.90;;;;;;4994633;28;20038;-73
2022/10/12 04:19:53;;;;;;;7.68;3.25;;;7.40;99.90;;;;;;4995418;28;20077;-71
2022/10/12 04:22:19;;;;;;;9.52;3.85;;;7.40;99.90;;;;;;4993961;28;20039;-71
2022/10/12 04:24:46;;;;;;;9.68;3.78;;;7.40;99.90;;;;;;4995647;28;20468;-72
2022/10/12 04:27:12;;;;;;;7.70;2.80;;;7.40;99.90;;;;;;4994464;28;20049;-70
2022/10/12 04:29:38;;;;;;;7.53;3.28;;;7.40;99.90;;;;;;4995123;28;20034;-71
2022/10/12 04:32:04;;;;;;;10.20;3.30;;;7.40;99.90;;;;;;4993176;28;20038;-72
2022/10/12 04:34:30;;;;;;;6.22;3.00;;;7.30;99.90;;;;;;4995206;28;20027;-70
2022/10/12 04:36:56;;;;;;;9.40;3.33;;;7.30;99.90;;;;;;4992824;28;20042;-75
2022/10/12 04:39:23;;;;;;;8.90;4.00;;;7.30;99.90;;;;;;4995420;28;20030;-73
2022/10/12 04:41:49;;;;;;;11.57;4.35;;;7.30;99.90;;;;;;4992501;28;20053;-72
2022/10/12 04:44:15;;;;;;;16.20;7.28;;;7.30;99.90;;;;;;4973122;28;20046;-72
2022/10/12 04:46:41;;;;;;;15.80;7.30;;;7.30;99.90;;;;;;4994541;28;20026;-71
2022/10/12 04:49:07;;;;;;;13.35;4.72;;;7.30;99.90;;;;;;4993865;28;20071;-72
2022/10/12 04:51:33;;;;;;;9.93;4.82;;;7.30;99.90;;;;;;4994135;28;20057;-73
2022/10/12 04:54:01;;;;;;;14.43;4.57;;;7.30;99.90;;;;;;4993135;28;20133;-73
2022/10/12 04:56:28;;;;;;;7.07;3.55;;;7.30;99.90;;;;;;4993401;28;20051;-72
2022/10/12 04:58:54;;;;;;;7.40;3.80;;;7.30;99.90;;;;;;4994701;28;20398;-76
2022/10/12 05:01:20;;;;;;;14.35;3.35;;;7.20;99.90;;;;;;4993920;28;20030;-73
2022/10/12 05:03:46;;;;;;;9.65;3.72;;;7.20;99.90;;;;;;4993208;28;20033;-72
2022/10/12 05:06:12;;;;;;;7.82;3.72;;;7.20;99.90;;;;;;4991702;28;20069;-74
2022/10/12 05:08:39;;;;;;;11.43;4.75;;;7.20;99.90;;;;;;4990592;28;20474;-71
2022/10/12 05:11:05;;;;;;;8.15;3.80;;;7.10;99.90;;;;;;4988616;28;20042;-71
2022/10/12 05:13:31;;;;;;;11.43;4.30;;;7.10;99.90;;;;;;4995151;28;20035;-72
2022/10/12 05:15:58;;;;;;;8.77;3.55;;;7.10;99.90;;;;;;4994199;28;20029;-74
2022/10/12 05:18:24;;;;;;;11.55;3.60;;;7.10;99.90;;;;;;4991174;28;20356;-72
2022/10/12 05:20:50;;;;;;;9.57;2.97;;;7.10;99.90;;;;;;4992984;28;20050;-72
2022/10/12 05:23:16;;;;;;;11.07;4.32;;;7.10;99.90;;;;;;4991914;28;20030;-72
2022/10/12 05:25:42;;;;;;;9.10;3.85;;;7.00;99.90;;;;;;4994663;28;20037;-71
2022/10/12 05:28:09;;;;;;;11.07;3.70;;;7.00;99.90;;;;;;4993745;28;20042;-71
2022/10/12 05:30:35;;;;;;;9.77;4.32;;;6.90;99.90;;;;;;4994631;28;20038;-71
2022/10/12 05:33:01;;;;;;;11.45;4.57;;;6.90;99.90;;;;;;4992487;28;20041;-72
2022/10/12 05:35:27;;;;;;;7.30;3.88;;;6.90;99.90;;;;;;4993413;28;20361;-71
2022/10/12 05:37:53;;;;;;;10.02;4.47;;;6.90;99.90;;;;;;4994172;28;20034;-71
2022/10/12 05:40:19;;;;;;;13.23;4.65;;;6.80;99.90;;;;;;4993537;28;20395;-72
2022/10/12 05:42:46;;;;;;;10.48;4.85;;;6.80;99.90;;;;;;4991176;28;20050;-72
2022/10/12 05:45:12;;;;;;;11.02;4.38;;;6.80;99.90;;;;;;4993747;28;20037;-71
2022/10/12 05:47:39;;;;;;;13.45;5.13;;;6.70;99.90;;;;;;4993858;28;20034;-72
2022/10/12 05:50:06;;;;;;;8.57;4.10;;;6.70;99.90;;;;;;4993642;28;20049;-70
2022/10/12 05:52:32;;;;;;;9.73;3.85;;;6.60;99.90;;;;;;4992913;28;20352;-71
2022/10/12 05:54:58;;;;;;;10.90;3.85;;;6.60;99.90;;;;;;4993345;28;20042;-72
2022/10/12 05:57:24;;;;;;;9.43;3.70;;;6.60;99.90;;;;;;4993859;28;20056;-71
2022/10/12 05:59:50;;;;;;;7.68;4.05;;;6.60;99.90;;;;;;4993903;28;20383;-71
2022/10/12 06:02:17;;;;;;;8.18;3.95;;;6.60;99.90;;;;;;4991500;28;20254;-71
2022/10/12 06:04:44;;;;;;;8.50;3.72;;;6.70;99.90;;;;;;4993994;28;20037;-72
2022/10/12 06:07:10;;;;;;;7.50;3.58;;;6.70;99.90;;;;;;4993245;28;20042;-71
2022/10/12 06:09:39;;;;;;;12.82;4.15;;;6.70;99.90;;;;;;4992224;28;20448;-71
2022/10/12 06:12:06;;;;;;;5.57;2.88;;;6.70;99.90;;;;;;4991894;28;20026;-71
2022/10/12 06:14:32;;;;;;;9.00;3.35;;;6.70;99.90;;;;;;4993915;28;20037;-71
2022/10/12 06:16:58;;;;;;;10.45;4.47;;;6.70;99.90;;;;;;4992802;28;20034;-78
2022/10/12 06:19:24;;;;;;;9.02;3.88;;;6.70;99.90;;;;;;4993820;28;20028;-71
2022/10/12 06:21:50;;;;;;;12.38;4.63;;;6.70;99.90;;;;;;4991928;28;20034;-71
2022/10/12 06:24:16;;;;;;;9.70;4.07;;;6.60;99.90;;;;;;4991863;28;20034;-71
2022/10/12 06:26:42;;;;;;;8.25;3.40;;;6.60;99.90;;;;;;4993228;28;20046;-72
2022/10/12 06:29:09;;;;;;;6.97;4.25;;;6.60;99.90;;;;;;4992984;28;20045;-70
2022/10/12 06:31:37;;;;;;;6.25;3.20;;;6.60;99.90;;;;;;4992247;28;20440;-72
2022/10/12 06:34:03;;;;;;;9.90;3.33;;;6.60;99.90;;;;;;4992517;28;20041;-72
2022/10/12 06:36:29;;;;;;;8.00;3.25;;;6.60;99.90;;;;;;4993452;28;20411;-71
2022/10/12 06:38:55;;;;;;;6.30;3.50;;;6.50;99.90;;;;;;4992415;28;20050;-71
2022/10/12 06:41:21;;;;;;;10.68;3.63;;;6.60;99.90;;;;;;4991888;28;20456;-71
2022/10/12 06:43:47;;;;;;;8.38;3.75;;;6.60;99.90;;;;;;4992054;28;20389;-72
2022/10/12 06:46:14;;;;;;;6.10;3.50;;;6.50;99.90;;;;;;4992389;28;20399;-70
2022/10/12 06:48:40;;;;;;;5.82;3.30;;;6.60;99.90;;;;;;4992864;28;20404;-72
2022/10/12 06:51:06;;;;;;;9.93;3.17;;;6.60;99.90;;;;;;4992138;28;20042;-71
2022/10/12 06:53:33;;;;;;;10.95;3.42;;;6.60;99.90;;;;;;4989871;28;20050;-72
2022/10/12 06:56:10;;;;;;;8.52;3.33;;;6.70;99.90;;;;;;4992817;28;20042;-73
2022/10/12 06:58:36;;;;;;;7.70;3.08;;;6.80;99.90;;;;;;4993074;28;20045;-71
2022/10/12 07:01:04;;;;;;;7.10;3.53;;;6.90;99.90;;;;;;4990963;28;20479;-72
2022/10/12 07:03:30;;;;;;;10.70;3.90;;;6.90;99.90;;;;;;4991328;28;20037;-70
2022/10/12 07:06:11;;;;;;;8.30;2.83;;;7.00;99.90;;;;;;4992800;28;20464;-71
2022/10/12 07:08:39;;;;;;;12.52;4.28;;;7.20;99.90;;;;;;4992169;28;20381;-71
2022/10/12 07:11:08;;;;;;;7.80;3.60;;;7.30;99.90;;;;;;4992427;28;20041;-71
2022/10/12 07:13:34;;;;;;;6.47;3.55;;;7.30;99.90;;;;;;4991358;28;20034;-70
2022/10/12 07:16:04;;;;;;;9.48;2.95;;;7.40;99.90;;;;;;4992699;28;20041;-73
2022/10/12 07:18:30;;;;;;;13.65;5.50;;;7.50;99.90;;;;;;4992960;28;20038;-71
2022/10/12 07:20:58;;;;;;;12.38;3.25;;;7.60;99.90;;;;;;4991356;28;20033;-71
2022/10/12 07:23:30;;;;;;;11.98;3.83;;;7.70;99.90;;;;;;4990564;28;20034;-72
2022/10/12 07:25:56;;;;;;;7.57;2.97;;;8.00;99.90;;;;;;4991436;28;20030;-71
2022/10/12 07:28:22;;;;;;;10.65;2.88;;;8.20;99.90;;;;;;4991374;28;20034;-71
2022/10/12 07:30:49;;;;;;;5.63;3.10;;;8.40;99.90;;;;;;4992650;28;20495;-71
2022/10/12 07:33:15;;;;;;;4.55;2.75;;;8.70;99.90;;;;;;4990375;28;20037;-71
2022/10/12 07:35:41;;;;;;;8.57;3.70;;;8.80;99.90;;;;;;4992831;28;20057;-71
2022/10/12 07:38:07;;;;;;;6.30;3.38;;;8.80;99.90;;;;;;4991872;28;20054;-72
2022/10/12 07:40:34;;;;;;;8.70;2.78;;;8.90;99.90;;;;;;4992778;28;20034;-71
2022/10/12 07:43:00;;;;;;;7.75;3.00;;;8.90;99.90;;;;;;4989798;28;20043;-71
2022/10/12 07:45:29;;;;;;;9.63;3.53;;;8.80;99.90;;;;;;4991846;28;20038;-71
2022/10/12 07:47:55;;;;;;;15.07;3.55;;;8.60;99.90;;;;;;4991321;28;20039;-71
2022/10/12 07:50:21;;;;;;;12.23;2.83;;;8.50;99.90;;;;;;5000619;28;20050;-71
2022/10/12 07:52:48;;;;;;;9.20;2.78;;;8.50;99.90;;;;;;4999975;28;20068;-72
2022/10/12 07:55:14;;;;;;;8.10;3.70;;;8.90;99.90;;;;;;4986521;28;20042;-71
2022/10/12 07:57:40;;;;;;;12.13;3.17;;;9.00;99.90;;;;;;4992538;28;20030;-71
2022/10/12 08:00:07;;;;;;;4.82;2.33;;;8.90;99.90;;;;;;4990634;28;20578;-72
2022/10/12 08:02:37;;;;;;;;;;;9.10;99.90;;;;;;4999147;28;20365;-71
2022/10/12 08:05:07;;;;;;;5.65;2.55;;;9.50;99.90;;;;;;4990262;28;19929;-78
2022/10/12 08:07:33;;;;;;;10.65;2.78;;;9.70;99.90;;;;;;4992423;28;20042;-72
2022/10/12 08:09:59;;;;;;;5.93;2.17;;;9.70;99.90;;;;;;4992151;28;20041;-72
2022/10/12 08:12:25;;;;;;;8.25;3.33;;;9.90;99.90;;;;;;4991795;28;20030;-71
2022/10/12 08:14:51;;;;;;;9.50;3.17;;;9.90;99.90;;;;;;4991002;28;20382;-73
2022/10/12 08:17:18;;;;;;;8.02;3.47;;;10.00;99.90;;;;;;4991443;28;20399;-70
2022/10/12 08:19:44;;;;;;;7.47;3.10;;;10.30;99.90;;;;;;4992042;28;20043;-72
2022/10/12 08:22:11;;;;;;;12.32;3.15;;;10.20;99.90;;;;;;4991704;28;20039;-72
2022/10/12 08:24:37;;;;;;;7.57;3.33;;;11.00;99.90;;;;;;4991688;28;20030;-72
2022/10/12 08:27:06;;;;;;;8.57;2.60;;;10.80;99.90;;;;;;4983532;28;20468;-75
2022/10/12 08:29:33;;;;;;;9.13;2.95;;;10.60;99.90;;;;;;4985723;28;20046;-71
2022/10/12 08:32:00;;;;;;;8.05;2.80;;;10.70;99.90;;;;;;4992171;28;20046;-72
2022/10/12 08:34:29;;;;;;;9.30;3.17;;;10.60;99.90;;;;;;4991278;28;20042;-72
2022/10/12 08:36:58;;;;;;;9.93;2.60;;;11.00;99.90;;;;;;4992139;28;20053;-72
2022/10/12 08:39:24;;;;;;;9.32;2.63;;;11.00;99.90;;;;;;4989819;28;20198;-72
2022/10/12 08:42:22;;;;;;;8.98;3.47;;;11.30;99.90;;;;;;4994788;28;20030;-71
2022/10/12 08:45:06;;;;;;;5.38;2.40;;;11.70;99.90;;;;;;4990944;28;20057;-73
2022/10/12 08:47:43;;;;;;;6.63;2.72;;;11.00;99.90;;;;;;4993663;28;20081;-71
2022/10/12 08:50:34;;;;;;;8.43;2.25;;;11.50;99.90;;;;;;4996465;28;20054;-73
2022/10/12 08:53:19;;;;;;;7.18;2.70;;;12.00;99.90;;;;;;4981957;28;20073;-72
2022/10/12 08:55:46;;;;;;;9.40;2.22;;;13.30;99.90;;;;;;4995349;28;20476;-72
2022/10/12 08:58:15;;;;;;;5.97;2.20;;;13.20;99.90;;;;;;4993121;28;20038;-72
2022/10/12 09:00:45;;;;;;;10.48;2.95;;;12.60;99.90;;;;;;4994992;28;20102;-71
2022/10/12 09:03:26;;;;;;;8.10;3.50;;;11.80;99.90;;;;;;4993361;28;20372;-74
2022/10/12 09:06:23;;;;;;;8.40;3.28;;;11.70;99.90;;;;;;4995179;28;20030;-72
2022/10/12 09:09:17;;;;;;;8.88;2.78;;;11.30;99.90;;;;;;4977296;28;20054;-72
2022/10/12 09:11:59;;;;;;;9.98;2.88;;;11.40;99.90;;;;;;4994723;28;20041;-71
2022/10/12 09:14:35;;;;;;;4.90;2.28;;;11.10;99.90;;;;;;4994145;28;20038;-73
2022/10/12 09:17:25;;;;;;;6.28;3.42;;;11.30;99.90;;;;;;4994224;28;20575;-73
2022/10/12 09:20:17;;;;;;;7.28;2.80;;;11.70;99.90;;;;;;4994737;28;20054;-72
2022/10/12 09:22:50;;;;;;;6.78;3.00;;;11.70;99.90;;;;;;4994797;28;20026;-72
2022/10/12 09:25:20;;;;;;;9.93;3.17;;;11.70;99.90;;;;;;4994005;28;20034;-72
2022/10/12 09:27:47;;;;;;;8.50;3.38;;;11.70;99.90;;;;;;4993216;28;20042;-71
2022/10/12 09:30:15;;;;;;;6.90;2.80;;;11.70;99.90;;;;;;4993762;28;20030;-72
2022/10/12 09:32:51;;;;;;;9.40;3.33;;;11.70;99.90;;;;;;4994681;28;20455;-72
2022/10/12 09:35:17;;;;;;;7.75;3.58;;;12.00;99.90;;;;;;4993955;28;20041;-71
2022/10/12 09:37:48;;;;;;;8.02;3.35;;;12.30;99.90;;;;;;4992906;28;20033;-71
2022/10/12 09:40:21;;;;;;;7.13;2.85;;;12.20;99.90;;;;;;4993615;28;20034;-72
2022/10/12 09:42:48;;;;;;;7.63;2.97;;;12.10;99.90;;;;;;4994272;28;20045;-73
2022/10/12 09:45:19;;;;;;;6.82;3.05;;;12.10;99.90;;;;;;4993999;28;20031;-73
2022/10/12 09:48:14;;;;;;;8.27;3.58;;;12.30;99.90;;;;;;4993578;28;20057;-71
2022/10/12 09:50:54;;;;;;;10.48;3.20;;;12.50;99.90;;;;;;4984582;28;20050;-73
2022/10/12 09:53:30;;;;;;;7.35;3.83;;;12.50;99.90;;;;;;4986547;28;20038;-72
2022/10/12 09:56:23;;;;;;;11.27;4.10;;;12.80;99.90;;;;;;4992916;28;20038;-72
2022/10/12 09:58:53;;;;;;;13.85;3.90;;;13.30;99.90;;;;;;4993929;28;20141;-71
2022/10/12 10:01:27;;;;;;;11.20;3.73;;;13.90;99.90;;;;;;4992755;28;20038;-72
2022/10/12 10:04:16;;;;;;;5.68;3.17;;;14.00;99.90;;;;;;4993187;28;20483;-72
2022/10/12 10:06:45;;;;;;;8.70;4.32;;;13.40;99.90;;;;;;4993786;28;20038;-72
2022/10/12 10:09:25;;;;;;;11.13;4.50;;;12.80;99.90;;;;;;4993241;28;20046;-73
2022/10/12 10:11:51;;;;;;;9.07;3.53;;;13.00;99.90;;;;;;4992315;28;20039;-73
2022/10/12 10:14:17;;;;;;;8.35;4.00;;;13.40;99.90;;;;;;4991372;28;20042;-71
2022/10/12 10:16:51;;;;;;;9.07;4.03;;;13.40;99.90;;;;;;4992180;28;20486;-72
2022/10/12 10:19:21;;;;;;;13.38;4.10;;;13.50;99.90;;;;;;4993131;28;20050;-71
2022/10/12 10:21:47;;;;;;;14.52;4.80;;;13.40;99.90;;;;;;4992240;28;20038;-71
2022/10/12 10:24:39;;;;;;;11.52;5.65;;;13.50;99.90;;;;;;4992931;28;20038;-71
2022/10/12 10:27:06;;;;;;;11.57;4.38;;;13.60;99.90;;;;;;4990530;28;20039;-71
2022/10/12 10:29:32;;;;;;;12.52;4.38;;;13.70;99.90;;;;;;4992548;28;20041;-72
2022/10/12 10:32:25;;;;;;;9.63;4.85;;;14.00;99.90;;;;;;4991803;28;20030;-72
2022/10/12 10:35:11;;;;;;;11.82;4.40;;;14.10;99.90;;;;;;4993877;28;20034;-72
2022/10/12 10:37:54;;;;;;;10.18;4.32;;;14.10;99.90;;;;;;4993509;28;20038;-72
2022/10/12 10:40:31;;;;;;;12.18;4.45;;;14.10;99.90;;;;;;4992650;28;20034;-72
2022/10/12 10:43:02;;;;;;;10.65;4.35;;;14.10;99.90;;;;;;5006474;28;20038;-71
2022/10/12 10:45:47;;;;;;;12.63;4.80;;;14.20;99.90;;;;;;4991384;28;20259;-72
2022/10/12 10:48:18;;;;;;;13.30;4.63;;;14.20;99.90;;;;;;4992256;28;20045;-73
2022/10/12 10:50:51;;;;;;;7.93;4.03;;;14.20;99.90;;;;;;4993510;28;20145;-71
2022/10/12 10:53:23;;;;;;;8.73;4.38;;;14.30;99.90;;;;;;4990298;28;20464;-72
2022/10/12 10:56:00;;;;;;;8.32;3.67;;;14.50;99.90;;;;;;4993324;28;20030;-73
2022/10/12 10:58:55;;;;;;;7.82;4.65;;;14.60;99.90;;;;;;4991142;28;20042;-71
2022/10/12 11:01:53;;;;;;;8.35;4.25;;;14.80;99.90;;;;;;4991207;28;20030;-72
2022/10/12 11:04:28;;;;;;;12.02;5.65;;;15.20;99.90;;;;;;4991459;28;20391;-71
2022/10/12 11:07:00;;;;;;;14.40;3.85;;;15.50;99.90;;;;;;4992815;28;20391;-73
2022/10/12 11:09:33;;;;;;;8.10;4.65;;;15.20;99.90;;;;;;4992229;28;20047;-72
2022/10/12 11:12:11;;;;;;;11.98;5.40;;;15.20;99.90;;;;;;4990214;28;20533;-72
2022/10/12 11:14:50;;;;;;;10.20;4.55;;;15.30;99.90;;;;;;4992783;28;20026;-72
2022/10/12 11:17:41;;;;;;;8.07;4.32;;;15.20;99.90;;;;;;4991984;28;20037;-73
2022/10/12 11:20:16;;;;;;;;;;;15.20;99.90;;;;;;4987650;28;20050;-72
2022/10/12 11:23:18;;;;;;;9.23;4.65;;;15.50;99.90;;;;;;4986753;28;20411;-72
2022/10/12 11:26:10;;;;;;;8.75;4.82;;;15.50;99.90;;;;;;4974424;28;20050;-71
2022/10/12 11:28:37;;;;;;;18.13;6.20;;;15.60;99.90;;;;;;4980978;28;20046;-71
2022/10/12 11:31:11;;;;;;;9.07;5.70;;;15.90;99.90;;;;;;4992829;28;20383;-71
2022/10/12 11:33:41;;;;;;;11.88;5.43;;;15.60;99.90;;;;;;4992499;28;20031;-71
2022/10/12 11:36:15;;;;;;;7.88;4.40;;;15.20;99.90;;;;;;4992358;28;20396;-72
2022/10/12 11:38:49;;;;;;;8.18;4.40;;;15.10;99.90;;;;;;4991216;28;20391;-71
2022/10/12 11:41:19;;;;;;;12.55;6.45;;;15.50;99.90;;;;;;4991959;28;20491;-71
2022/10/12 11:44:02;;;;;;;13.02;5.03;;;16.00;99.90;;;;;;4992766;28;20383;-72
2022/10/12 11:46:36;;;;;;;9.68;4.53;;;16.10;99.90;;;;;;4991531;28;20387;-72
2022/10/12 11:49:44;;;;;;;9.25;5.95;;;16.10;99.90;;;;;;4990774;28;20054;-72
2022/10/12 11:52:11;;;;;;;10.27;4.20;;;16.10;99.90;;;;;;4983449;28;20053;-74
2022/10/12 11:55:02;;;;;;;10.05;4.05;;;15.80;99.90;;;;;;4992187;28;20051;-72
2022/10/12 11:57:32;;;;;;;11.90;4.80;;;15.50;99.90;;;;;;4991618;28;20050;-72
2022/10/12 12:00:21;;;;;;;;;;;15.60;99.90;;;;;;4991402;28;20274;-73
2022/10/12 12:03:14;;;;;;;9.00;3.67;;;16.00;99.90;;;;;;4963164;28;19910;-73
2022/10/12 12:05:40;;;;;;;9.18;4.13;;;16.00;99.90;;;;;;5001679;28;20046;-70
2022/10/12 12:08:42;;;;;;;8.43;3.47;;;15.90;99.90;;;;;;5004470;28;20038;-72
2022/10/12 12:11:24;;;;;;;9.30;3.58;;;15.80;99.90;;;;;;4994534;28;20102;-72
2022/10/12 12:14:10;;;;;;;11.43;4.60;;;15.70;99.90;;;;;;4992674;28;20038;-71
2022/10/12 12:16:42;;;;;;;6.00;3.50;;;15.80;99.90;;;;;;4994669;28;20038;-71
2022/10/12 12:19:16;;;;;;;6.18;3.42;;;15.80;99.90;;;;;;4994283;28;20046;-73
2022/10/12 12:22:15;;;;;;;8.98;4.13;;;15.90;99.90;;;;;;4989452;28;20034;-71
2022/10/12 12:24:56;;;;;;;8.77;4.68;;;16.20;99.90;;;;;;4995746;28;20034;-72
2022/10/12 12:27:34;;;;;;;9.80;4.00;;;16.30;99.90;;;;;;4993651;28;20046;-71
2022/10/12 12:30:05;;;;;;;7.13;3.90;;;16.40;99.90;;;;;;4994165;28;20455;-71
2022/10/12 12:32:49;;;;;;;9.93;5.05;;;16.70;99.90;;;;;;4987746;28;20292;-72
2022/10/12 12:35:23;;;;;;;10.60;5.15;;;16.70;99.90;;;;;;4994987;28;20034;-72
2022/10/12 12:38:04;;;;;;;8.55;5.68;;;16.40;99.90;;;;;;4995424;28;20471;-72
2022/10/12 12:40:31;;;;;;;8.63;4.60;;;16.10;99.90;;;;;;4995031;28;20065;-72
2022/10/12 12:43:28;;;;;;;12.00;6.30;;;16.20;99.90;;;;;;4995707;28;20045;-70
2022/10/12 12:46:03;;;;;;;12.80;6.68;;;16.50;99.90;;;;;;4995262;28;20031;-72
2022/10/12 12:48:38;;;;;;;14.90;7.47;;;16.90;99.90;;;;;;4992366;28;20061;-71
2022/10/12 12:51:11;;;;;;;10.60;6.60;;;17.20;99.90;;;;;;4996042;28;20046;-70
2022/10/12 12:54:19;;;;;;;9.48;6.10;;;17.20;99.90;;;;;;4995609;28;20054;-70
2022/10/12 12:57:24;;;;;;;13.32;7.25;;;17.00;99.90;;;;;;4915971;29;20047;-72
2022/10/12 13:00:33;;;;;;;14.52;7.13;;;16.80;99.90;;;;;;4988336;28;20041;-72
2022/10/12 13:03:38;;;;;;;14.02;8.20;;;16.60;99.90;;;;;;4915834;29;20040;-72
2022/10/12 13:06:23;;;;;;;10.57;6.68;;;16.70;99.90;;;;;;4995605;28;20041;-72
2022/10/12 13:09:04;;;;;;;11.82;6.88;;;16.80;99.90;;;;;;4993414;28;20050;-72
2022/10/12 13:11:54;;;;;;;12.07;6.78;;;17.10;99.90;;;;;;4994031;28;20038;-72
2022/10/12 13:14:59;;;;;;;14.73;7.55;;;17.10;99.90;;;;;;4993951;28;20387;-72
2022/10/12 13:17:39;;;;;;;11.35;6.70;;;17.00;99.90;;;;;;4994273;28;20463;-73
2022/10/12 13:20:24;;;;;;;17.02;6.57;;;16.90;99.90;;;;;;4992412;28;20395;-71